Huttig, Arkansas
Current Conditions -  °F | °C
As of 8:15 AM on Sunday 21 Dec 2014 (Local Time) from KBQP Reporting Station
Haze Haze  
Wind Chill: 38°   Ceiling: Unl
Heat Index: 38°   Visibility: 5mi
Dew Point: 38°   Wind: 0mph
Humidity: 98%   Direction: NA
Pressure: 30.18"   Gusts: NA
Location:  33.04°N, 92.18°W
Report Text: KBQP 211415Z AUTO 00000KT 5SM BR CLR 04/03 A3018 RMK AO2 T00360033
Loading
Personal Weather Stations






























Interactive Weather Map New forecast layout! Learn more

10-Day Weather Forecast

Advertisements
Track Severe Weather on mobile